sensor_id;sensor_type;location;lat;lon;timestamp;pressure;altitude;pressure_sealevel;temperature;humidity
43814;BME280;29669;55.706;37.656;2023-02-08T00:00:41;102553.03;;;-4.60;nan
43814;BME280;29669;55.706;37.656;2023-02-08T00:08:17;102558.06;;;-4.46;nan
43814;BME280;29669;55.706;37.656;2023-02-08T00:10:44;102547.97;;;-4.51;nan
43814;BME280;29669;55.706;37.656;2023-02-08T00:13:15;102540.34;;;-4.54;nan
43814;BME280;29669;55.706;37.656;2023-02-08T00:15:53;102537.81;;;-4.55;nan
43814;BME280;29669;55.706;37.656;2023-02-08T00:18:21;102543.72;;;-4.56;nan
43814;BME280;29669;55.706;37.656;2023-02-08T00:20:50;102550.47;;;-4.49;nan
43814;BME280;29669;55.706;37.656;2023-02-08T00:23:26;102547.09;;;-4.51;nan
43814;BME280;29669;55.706;37.656;2023-02-08T00:25:58;102534.44;;;-4.53;nan
43814;BME280;29669;55.706;37.656;2023-02-08T00:28:25;102549.63;;;-4.56;nan
43814;BME280;29669;55.706;37.656;2023-02-08T00:30:53;102558.09;;;-4.57;nan
43814;BME280;29669;55.706;37.656;2023-02-08T00:33:25;102536.94;;;-4.63;nan
43814;BME280;29669;55.706;37.656;2023-02-08T00:36:00;102531.91;;;-4.60;nan
43814;BME280;29669;55.706;37.656;2023-02-08T00:38:37;102540.34;;;-4.64;nan
43814;BME280;29669;55.706;37.656;2023-02-08T00:41:10;102536.13;;;-4.70;nan
43814;BME280;29669;55.706;37.656;2023-02-08T00:43:39;102535.28;;;-4.72;nan
43814;BME280;29669;55.706;37.656;2023-02-08T00:46:10;102512.50;;;-4.75;nan
43814;BME280;29669;55.706;37.656;2023-02-08T00:48:42;102515.84;;;-4.67;nan
43814;BME280;29669;55.706;37.656;2023-02-08T00:51:12;102515.84;;;-4.70;nan
43814;BME280;29669;55.706;37.656;2023-02-08T00:53:46;102510.78;;;-4.73;nan
43814;BME280;29669;55.706;37.656;2023-02-08T00:56:17;102524.28;;;-4.72;nan
43814;BME280;29669;55.706;37.656;2023-02-08T00:58:44;102535.28;;;-4.64;nan
43814;BME280;29669;55.706;37.656;2023-02-08T01:01:15;102529.38;;;-4.68;nan
43814;BME280;29669;55.706;37.656;2023-02-08T01:03:43;102520.09;;;-4.67;nan
43814;BME280;29669;55.706;37.656;2023-02-08T01:11:17;102530.22;;;-4.60;nan
43814;BME280;29669;55.706;37.656;2023-02-08T01:13:48;102533.59;;;-4.56;nan
43814;BME280;29669;55.706;37.656;2023-02-08T01:16:27;102509.94;;;-4.60;nan
43814;BME280;29669;55.706;37.656;2023-02-08T01:18:56;102525.97;;;-4.52;nan
43814;BME280;29669;55.706;37.656;2023-02-08T01:21:30;102521.75;;;-4.56;nan
43814;BME280;29669;55.706;37.656;2023-02-08T01:24:03;102531.06;;;-4.61;nan
43814;BME280;29669;55.706;37.656;2023-02-08T01:26:31;102526.81;;;-4.63;nan
43814;BME280;29669;55.706;37.656;2023-02-08T01:31:42;102521.78;;;-4.68;nan
43814;BME280;29669;55.706;37.656;2023-02-08T01:36:53;102530.22;;;-4.63;nan
43814;BME280;29669;55.706;37.656;2023-02-08T01:39:21;102518.38;;;-4.67;nan
43814;BME280;29669;55.706;37.656;2023-02-08T01:41:52;102520.94;;;-4.64;nan
43814;BME280;29669;55.706;37.656;2023-02-08T01:47:31;102514.19;;;-4.62;nan
43814;BME280;29669;55.706;37.656;2023-02-08T01:49:59;102534.44;;;-4.62;nan
43814;BME280;29669;55.706;37.656;2023-02-08T01:52:42;102523.44;;;-4.67;nan
43814;BME280;29669;55.706;37.656;2023-02-08T01:55:15;102538.66;;;-4.67;nan
43814;BME280;29669;55.706;37.656;2023-02-08T01:57:48;102537.81;;;-4.66;nan
43814;BME280;29669;55.706;37.656;2023-02-08T02:00:24;102531.03;;;-4.67;nan
43814;BME280;29669;55.706;37.656;2023-02-08T02:03:14;102515.03;;;-4.75;nan
43814;BME280;29669;55.706;37.656;2023-02-08T02:05:47;102524.28;;;-4.79;nan
43814;BME280;29669;55.706;37.656;2023-02-08T02:08:19;102529.38;;;-4.82;nan
43814;BME280;29669;55.706;37.656;2023-02-08T02:10:48;102520.94;;;-4.79;nan
43814;BME280;29669;55.706;37.656;2023-02-08T02:13:25;102507.41;;;-4.83;nan
43814;BME280;29669;55.706;37.656;2023-02-08T02:15:57;102505.72;;;-4.85;nan
43814;BME280;29669;55.706;37.656;2023-02-08T02:18:27;102509.13;;;-4.77;nan
43814;BME280;29669;55.706;37.656;2023-02-08T02:21:10;102511.63;;;-4.75;nan
43814;BME280;29669;55.706;37.656;2023-02-08T02:35:22;102519.25;;;-4.77;nan
43814;BME280;29669;55.706;37.656;2023-02-08T02:37:50;102525.16;;;-4.67;nan
43814;BME280;29669;55.706;37.656;2023-02-08T02:40:32;102503.19;;;-4.74;nan
43814;BME280;29669;55.706;37.656;2023-02-08T02:51:55;102521.78;;;-4.62;nan
43814;BME280;29669;55.706;37.656;2023-02-08T02:54:30;102531.91;;;-4.54;nan
43814;BME280;29669;55.706;37.656;2023-02-08T02:57:07;102518.38;;;-4.67;nan
43814;BME280;29669;55.706;37.656;2023-02-08T02:59:40;102529.38;;;-4.66;nan
43814;BME280;29669;55.706;37.656;2023-02-08T03:02:12;102528.50;;;-4.65;nan
43814;BME280;29669;55.706;37.656;2023-02-08T03:04:55;102524.31;;;-4.60;nan
43814;BME280;29669;55.706;37.656;2023-02-08T03:22:18;102514.16;;;-4.72;nan
43814;BME280;29669;55.706;37.656;2023-02-08T03:25:22;102515.00;;;-4.64;nan
43814;BME280;29669;55.706;37.656;2023-02-08T03:28:23;102498.09;;;-4.61;nan
43814;BME280;29669;55.706;37.656;2023-02-08T03:34:12;102487.97;;;-4.49;nan
43814;BME280;29669;55.706;37.656;2023-02-08T03:36:52;102493.03;;;-4.40;nan
43814;BME280;29669;55.706;37.656;2023-02-08T03:39:32;102487.09;;;-4.28;nan
43814;BME280;29669;55.706;37.656;2023-02-08T03:42:10;102483.69;;;-4.17;nan
43814;BME280;29669;55.706;37.656;2023-02-08T03:44:50;102464.22;;;-4.07;nan
43814;BME280;29669;55.706;37.656;2023-02-08T03:47:26;102457.44;;;-4.04;nan
43814;BME280;29669;55.706;37.656;2023-02-08T03:49:59;102462.50;;;-3.98;nan
43814;BME280;29669;55.706;37.656;2023-02-08T03:52:38;102450.63;;;-3.97;nan
43814;BME280;29669;55.706;37.656;2023-02-08T04:00:22;102466.56;;;-3.66;nan
43814;BME280;29669;55.706;37.656;2023-02-08T04:02:59;102466.56;;;-3.63;nan
43814;BME280;29669;55.706;37.656;2023-02-08T04:08:00;102441.19;;;-3.68;nan
43814;BME280;29669;55.706;37.656;2023-02-08T04:10:30;102449.66;;;-3.67;nan
43814;BME280;29669;55.706;37.656;2023-02-08T04:13:01;102436.97;;;-3.67;nan
43814;BME280;29669;55.706;37.656;2023-02-08T04:15:32;102437.78;;;-3.64;nan
43814;BME280;29669;55.706;37.656;2023-02-08T04:20:32;102440.31;;;-3.61;nan
43814;BME280;29669;55.706;37.656;2023-02-08T04:23:00;102442.00;;;-3.64;nan
43814;BME280;29669;55.706;37.656;2023-02-08T04:25:30;102437.78;;;-3.62;nan
43814;BME280;29669;55.706;37.656;2023-02-08T04:27:58;102436.94;;;-3.64;nan
43814;BME280;29669;55.706;37.656;2023-02-08T04:32:53;102456.34;;;-3.54;nan
43814;BME280;29669;55.706;37.656;2023-02-08T04:35:33;102447.06;;;-3.54;nan
43814;BME280;29669;55.706;37.656;2023-02-08T04:38:13;102443.69;;;-3.56;nan
43814;BME280;29669;55.706;37.656;2023-02-08T04:40:58;102431.00;;;-3.60;nan
43814;BME280;29669;55.706;37.656;2023-02-08T04:43:26;102430.97;;;-3.57;nan
43814;BME280;29669;55.706;37.656;2023-02-08T04:46:06;102427.56;;;-3.50;nan
43814;BME280;29669;55.706;37.656;2023-02-08T04:48:36;102419.94;;;-3.52;nan
43814;BME280;29669;55.706;37.656;2023-02-08T04:51:06;102451.19;;;-3.42;nan
43814;BME280;29669;55.706;37.656;2023-02-08T04:53:43;102432.53;;;-3.35;nan
43814;BME280;29669;55.706;37.656;2023-02-08T04:56:14;102429.06;;;-3.25;nan
43814;BME280;29669;55.706;37.656;2023-02-08T04:58:47;102435.00;;;-3.25;nan
43814;BME280;29669;55.706;37.656;2023-02-08T05:01:15;102428.22;;;-3.27;nan
43814;BME280;29669;55.706;37.656;2023-02-08T05:03:43;102436.69;;;-3.22;nan
43814;BME280;29669;55.706;37.656;2023-02-08T05:06:10;102428.25;;;-3.29;nan
43814;BME280;29669;55.706;37.656;2023-02-08T05:08:38;102435.06;;;-3.34;nan
43814;BME280;29669;55.706;37.656;2023-02-08T05:11:06;102433.38;;;-3.33;nan
43814;BME280;29669;55.706;37.656;2023-02-08T05:13:39;102420.69;;;-3.38;nan
43814;BME280;29669;55.706;37.656;2023-02-08T05:16:07;102420.72;;;-3.39;nan
43814;BME280;29669;55.706;37.656;2023-02-08T05:18:35;102417.28;;;-3.37;nan
43814;BME280;29669;55.706;37.656;2023-02-08T05:23:30;102418.13;;;-3.33;nan
43814;BME280;29669;55.706;37.656;2023-02-08T05:25:59;102413.84;;;-3.28;nan
43814;BME280;29669;55.706;37.656;2023-02-08T05:28:35;102404.50;;;-3.23;nan
43814;BME280;29669;55.706;37.656;2023-02-08T05:31:16;102407.03;;;-3.23;nan
43814;BME280;29669;55.706;37.656;2023-02-08T05:33:44;102423.91;;;-3.13;nan
43814;BME280;29669;55.706;37.656;2023-02-08T05:36:13;102410.34;;;-3.11;nan
43814;BME280;29669;55.706;37.656;2023-02-08T05:38:40;102422.91;;;-2.97;nan
43814;BME280;29669;55.706;37.656;2023-02-08T05:43:39;102426.28;;;-2.95;nan
43814;BME280;29669;55.706;37.656;2023-02-08T05:46:11;102412.75;;;-2.99;nan
43814;BME280;29669;55.706;37.656;2023-02-08T05:48:39;102421.22;;;-2.94;nan
43814;BME280;29669;55.706;37.656;2023-02-08T05:51:17;102411.84;;;-2.90;nan
43814;BME280;29669;55.706;37.656;2023-02-08T05:53:45;102421.88;;;-2.78;nan
43814;BME280;29669;55.706;37.656;2023-02-08T05:59:28;102403.34;;;-2.86;nan
43814;BME280;29669;55.706;37.656;2023-02-08T06:02:05;102411.75;;;-2.81;nan
43814;BME280;29669;55.706;37.656;2023-02-08T06:04:37;102418.50;;;-2.80;nan
43814;BME280;29669;55.706;37.656;2023-02-08T06:07:16;102405.84;;;-2.83;nan
43814;BME280;29669;55.706;37.656;2023-02-08T06:09:44;102399.97;;;-2.87;nan
43814;BME280;29669;55.706;37.656;2023-02-08T06:14:54;102397.41;;;-2.85;nan
43814;BME280;29669;55.706;37.656;2023-02-08T06:17:36;102404.25;;;-2.92;nan
43814;BME280;29669;55.706;37.656;2023-02-08T06:20:18;102409.34;;;-2.92;nan
43814;BME280;29669;55.706;37.656;2023-02-08T06:22:48;102409.28;;;-2.89;nan
43814;BME280;29669;55.706;37.656;2023-02-08T06:25:19;102402.53;;;-2.90;nan
43814;BME280;29669;55.706;37.656;2023-02-08T06:27:51;102404.19;;;-2.84;nan
43814;BME280;29669;55.706;37.656;2023-02-08T06:30:22;102393.19;;;-2.86;nan
43814;BME280;29669;55.706;37.656;2023-02-08T06:32:50;102410.00;;;-2.73;nan
43814;BME280;29669;55.706;37.656;2023-02-08T06:35:20;102393.06;;;-2.74;nan
43814;BME280;29669;55.706;37.656;2023-02-08T06:37:50;102388.78;;;-2.72;nan
43814;BME280;29669;55.706;37.656;2023-02-08T06:40:24;102385.41;;;-2.71;nan
43814;BME280;29669;55.706;37.656;2023-02-08T06:42:57;102374.38;;;-2.70;nan
43814;BME280;29669;55.706;37.656;2023-02-08T06:45:35;102372.63;;;-2.65;nan
43814;BME280;29669;55.706;37.656;2023-02-08T06:48:03;102378.53;;;-2.63;nan
43814;BME280;29669;55.706;37.656;2023-02-08T06:50:37;102392.03;;;-2.56;nan
43814;BME280;29669;55.706;37.656;2023-02-08T06:53:06;102378.50;;;-2.60;nan
43814;BME280;29669;55.706;37.656;2023-02-08T06:55:48;102380.91;;;-2.48;nan
43814;BME280;29669;55.706;37.656;2023-02-08T06:58:33;102379.94;;;-2.35;nan
43814;BME280;29669;55.706;37.656;2023-02-08T07:01:11;102378.94;;;-2.25;nan
43814;BME280;29669;55.706;37.656;2023-02-08T07:03:47;102370.47;;;-2.27;nan
43814;BME280;29669;55.706;37.656;2023-02-08T07:08:48;102369.56;;;-2.21;nan
43814;BME280;29669;55.706;37.656;2023-02-08T07:11:30;102361.03;;;-2.14;nan
43814;BME280;29669;55.706;37.656;2023-02-08T07:14:03;102373.47;;;-1.96;nan
43814;BME280;29669;55.706;37.656;2023-02-08T07:16:39;102372.59;;;-1.92;nan
43814;BME280;29669;55.706;37.656;2023-02-08T07:21:46;102362.50;;;-2.00;nan
43814;BME280;29669;55.706;37.656;2023-02-08T07:24:22;102366.78;;;-2.02;nan
43814;BME280;29669;55.706;37.656;2023-02-08T07:26:52;102371.00;;;-1.99;nan
43814;BME280;29669;55.706;37.656;2023-02-08T07:31:59;102373.53;;;-2.01;nan
43814;BME280;29669;55.706;37.656;2023-02-08T07:34:29;102371.81;;;-1.97;nan
43814;BME280;29669;55.706;37.656;2023-02-08T07:37:06;102366.72;;;-1.99;nan
43814;BME280;29669;55.706;37.656;2023-02-08T07:39:37;102363.28;;;-1.95;nan
43814;BME280;29669;55.706;37.656;2023-02-08T07:42:08;102363.19;;;-1.88;nan
43814;BME280;29669;55.706;37.656;2023-02-08T07:47:21;102366.47;;;-1.79;nan
43814;BME280;29669;55.706;37.656;2023-02-08T07:49:54;102365.50;;;-1.72;nan
43814;BME280;29669;55.706;37.656;2023-02-08T07:54:49;102356.19;;;-1.73;nan
43814;BME280;29669;55.706;37.656;2023-02-08T07:57:35;102355.13;;;-1.58;nan
43814;BME280;29669;55.706;37.656;2023-02-08T08:00:08;102352.56;;;-1.58;nan
43814;BME280;29669;55.706;37.656;2023-02-08T08:02:47;102348.34;;;-1.59;nan
43814;BME280;29669;55.706;37.656;2023-02-08T08:05:20;102351.78;;;-1.62;nan
43814;BME280;29669;55.706;37.656;2023-02-08T08:07:55;102354.41;;;-1.68;nan
43814;BME280;29669;55.706;37.656;2023-02-08T08:10:29;102360.41;;;-1.70;nan
43814;BME280;29669;55.706;37.656;2023-02-08T08:13:01;102349.44;;;-1.75;nan
43814;BME280;29669;55.706;37.656;2023-02-08T08:15:29;102344.28;;;-1.71;nan
43814;BME280;29669;55.706;37.656;2023-02-08T08:18:01;102334.00;;;-1.66;nan
43814;BME280;29669;55.706;37.656;2023-02-08T08:20:28;102346.59;;;-1.56;nan
43814;BME280;29669;55.706;37.656;2023-02-08T08:22:57;102333.94;;;-1.60;nan
43814;BME280;29669;55.706;37.656;2023-02-08T08:25:25;102325.63;;;-1.71;nan
43814;BME280;29669;55.706;37.656;2023-02-08T08:27:53;102327.53;;;-1.85;nan
43814;BME280;29669;55.706;37.656;2023-02-08T08:30:21;102336.03;;;-1.86;nan
43814;BME280;29669;55.706;37.656;2023-02-08T08:32:49;102328.44;;;-1.91;nan
43814;BME280;29669;55.706;37.656;2023-02-08T08:40:12;102309.56;;;-1.75;nan
43814;BME280;29669;55.706;37.656;2023-02-08T08:42:45;102312.03;;;-1.70;nan
43814;BME280;29669;55.706;37.656;2023-02-08T08:45:13;102310.25;;;-1.65;nan
43814;BME280;29669;55.706;37.656;2023-02-08T08:50:10;102310.28;;;-1.67;nan
43814;BME280;29669;55.706;37.656;2023-02-08T08:52:44;102311.84;;;-1.58;nan
43814;BME280;29669;55.706;37.656;2023-02-08T08:55:12;102308.31;;;-1.51;nan
43814;BME280;29669;55.706;37.656;2023-02-08T08:57:40;102298.03;;;-1.45;nan
43814;BME280;29669;55.706;37.656;2023-02-08T09:02:56;102306.03;;;-1.16;nan
43814;BME280;29669;55.706;37.656;2023-02-08T09:05:45;102299.63;;;-0.93;nan
43814;BME280;29669;55.706;37.656;2023-02-08T09:11:46;102281.31;;;-0.27;nan
43814;BME280;29669;55.706;37.656;2023-02-08T09:15:27;102286.06;;;0.25;nan
43814;BME280;29669;55.706;37.656;2023-02-08T09:17:55;102273.19;;;0.29;nan
43814;BME280;29669;55.706;37.656;2023-02-08T09:21:12;102261.59;;;0.16;nan
43814;BME280;29669;55.706;37.656;2023-02-08T09:24:12;102262.13;;;0.29;nan
43814;BME280;29669;55.706;37.656;2023-02-08T09:26:53;102243.44;;;0.27;nan
43814;BME280;29669;55.706;37.656;2023-02-08T09:29:21;102246.66;;;0.35;nan
43814;BME280;29669;55.706;37.656;2023-02-08T09:31:59;102258.38;;;0.42;nan
43814;BME280;29669;55.706;37.656;2023-02-08T09:34:42;102253.03;;;0.52;nan
43814;BME280;29669;55.706;37.656;2023-02-08T09:37:22;102253.13;;;0.48;nan
43814;BME280;29669;55.706;37.656;2023-02-08T09:46:32;102255.91;;;0.05;nan
43814;BME280;29669;55.706;37.656;2023-02-08T09:49:17;102255.19;;;-0.02;nan
43814;BME280;29669;55.706;37.656;2023-02-08T10:02:38;102250.88;;;-0.76;nan
43814;BME280;29669;55.706;37.656;2023-02-08T10:05:29;102236.63;;;-0.86;nan
43814;BME280;29669;55.706;37.656;2023-02-08T10:07:59;102246.84;;;-0.86;nan
43814;BME280;29669;55.706;37.656;2023-02-08T10:16:44;102222.94;;;-0.04;nan
43814;BME280;29669;55.706;37.656;2023-02-08T10:27:35;102212.59;;;0.34;nan
43814;BME280;29669;55.706;37.656;2023-02-08T10:35:35;102184.19;;;0.46;nan
43814;BME280;29669;55.706;37.656;2023-02-08T10:38:24;102182.72;;;0.68;nan
43814;BME280;29669;55.706;37.656;2023-02-08T10:51:16;102180.09;;;1.02;nan
43814;BME280;29669;55.706;37.656;2023-02-08T10:53:45;102173.59;;;1.20;nan
43814;BME280;29669;55.706;37.656;2023-02-08T10:57:09;102171.09;;;1.18;nan
43814;BME280;29669;55.706;37.656;2023-02-08T11:00:10;102171.81;;;0.94;nan
43814;BME280;29669;55.706;37.656;2023-02-08T11:06:28;102173.38;;;0.37;nan
43814;BME280;29669;55.706;37.656;2023-02-08T11:09:19;102186.25;;;0.34;nan
43814;BME280;29669;55.706;37.656;2023-02-08T11:12:24;102200.31;;;0.48;nan
43814;BME280;29669;55.706;37.656;2023-02-08T11:15:01;102182.31;;;0.53;nan
43814;BME280;29669;55.706;37.656;2023-02-08T11:17:32;102187.03;;;0.68;nan
43814;BME280;29669;55.706;37.656;2023-02-08T11:20:04;102185.94;;;0.76;nan
43814;BME280;29669;55.706;37.656;2023-02-08T11:22:44;102169.78;;;0.74;nan
43814;BME280;29669;55.706;37.656;2023-02-08T11:25:37;102180.81;;;0.76;nan
43814;BME280;29669;55.706;37.656;2023-02-08T11:28:22;102187.22;;;0.91;nan
43814;BME280;29669;55.706;37.656;2023-02-08T11:33:28;102175.91;;;1.00;nan
43814;BME280;29669;55.706;37.656;2023-02-08T11:36:07;102178.50;;;0.98;nan
43814;BME280;29669;55.706;37.656;2023-02-08T11:38:41;102175.31;;;0.90;nan
43814;BME280;29669;55.706;37.656;2023-02-08T11:41:15;102181.44;;;0.84;nan
43814;BME280;29669;55.706;37.656;2023-02-08T11:43:56;102167.75;;;0.87;nan
43814;BME280;29669;55.706;37.656;2023-02-08T11:46:26;102148.59;;;0.71;nan
43814;BME280;29669;55.706;37.656;2023-02-08T11:48:55;102146.56;;;0.82;nan
43814;BME280;29669;55.706;37.656;2023-02-08T11:51:41;102152.22;;;0.93;nan
43814;BME280;29669;55.706;37.656;2023-02-08T11:54:39;102151.03;;;1.05;nan
43814;BME280;29669;55.706;37.656;2023-02-08T11:57:20;102149.59;;;0.96;nan
43814;BME280;29669;55.706;37.656;2023-02-08T12:00:25;102132.28;;;0.75;nan
43814;BME280;29669;55.706;37.656;2023-02-08T12:02:59;102133.91;;;0.48;nan
43814;BME280;29669;55.706;37.656;2023-02-08T12:08:40;102135.06;;;0.05;nan
43814;BME280;29669;55.706;37.656;2023-02-08T12:11:14;102134.50;;;-0.07;nan
43814;BME280;29669;55.706;37.656;2023-02-08T12:14:09;102124.69;;;-0.23;nan
43814;BME280;29669;55.706;37.656;2023-02-08T12:19:35;102136.19;;;-0.41;nan
43814;BME280;29669;55.706;37.656;2023-02-08T12:22:23;102114.97;;;-0.43;nan
43814;BME280;29669;55.706;37.656;2023-02-08T12:33:42;102111.00;;;-0.19;nan
43814;BME280;29669;55.706;37.656;2023-02-08T12:36:22;102108.31;;;-0.15;nan
43814;BME280;29669;55.706;37.656;2023-02-08T12:53:54;102077.03;;;0.11;nan
43814;BME280;29669;55.706;37.656;2023-02-08T12:56:26;102079.03;;;0.00;nan
43814;BME280;29669;55.706;37.656;2023-02-08T12:58:59;102060.66;;;-0.14;nan
43814;BME280;29669;55.706;37.656;2023-02-08T13:01:44;102074.41;;;-0.20;nan
43814;BME280;29669;55.706;37.656;2023-02-08T13:04:19;102081.13;;;-0.16;nan
43814;BME280;29669;55.706;37.656;2023-02-08T13:06:56;102057.41;;;-0.21;nan
43814;BME280;29669;55.706;37.656;2023-02-08T13:12:26;102062.31;;;-0.13;nan
43814;BME280;29669;55.706;37.656;2023-02-08T13:15:09;102059.81;;;-0.15;nan
43814;BME280;29669;55.706;37.656;2023-02-08T13:18:26;102056.56;;;-0.20;nan
43814;BME280;29669;55.706;37.656;2023-02-08T13:23:42;102053.84;;;-0.14;nan
43814;BME280;29669;55.706;37.656;2023-02-08T13:26:32;102060.66;;;-0.14;nan
43814;BME280;29669;55.706;37.656;2023-02-08T13:31:33;102070.34;;;-0.27;nan
43814;BME280;29669;55.706;37.656;2023-02-08T13:34:35;102051.50;;;-0.23;nan
43814;BME280;29669;55.706;37.656;2023-02-08T13:37:29;102037.19;;;-0.27;nan
43814;BME280;29669;55.706;37.656;2023-02-08T13:40:17;102034.59;;;-0.25;nan
43814;BME280;29669;55.706;37.656;2023-02-08T13:45:34;102032.13;;;-0.30;nan
43814;BME280;29669;55.706;37.656;2023-02-08T13:48:16;102023.03;;;-0.38;nan
43814;BME280;29669;55.706;37.656;2023-02-08T13:50:52;102029.03;;;-0.41;nan
43814;BME280;29669;55.706;37.656;2023-02-08T13:56:49;102017.22;;;-0.45;nan
43814;BME280;29669;55.706;37.656;2023-02-08T13:59:38;102019.66;;;-0.40;nan
43814;BME280;29669;55.706;37.656;2023-02-08T14:04:45;102027.88;;;-0.29;nan
43814;BME280;29669;55.706;37.656;2023-02-08T14:07:23;102027.88;;;-0.29;nan
43814;BME280;29669;55.706;37.656;2023-02-08T14:18:03;102041.59;;;-0.67;nan
43814;BME280;29669;55.706;37.656;2023-02-08T14:21:04;102047.63;;;-0.71;nan
43814;BME280;29669;55.706;37.656;2023-02-08T14:23:36;102037.44;;;-0.71;nan
43814;BME280;29669;55.706;37.656;2023-02-08T14:26:09;102032.31;;;-0.71;nan
43814;BME280;29669;55.706;37.656;2023-02-08T14:28:53;102026.50;;;-0.76;nan
43814;BME280;29669;55.706;37.656;2023-02-08T14:31:35;102025.53;;;-0.70;nan
43814;BME280;29669;55.706;37.656;2023-02-08T14:36:34;102036.53;;;-0.70;nan
43814;BME280;29669;55.706;37.656;2023-02-08T14:39:21;102044.19;;;-0.70;nan
43814;BME280;29669;55.706;37.656;2023-02-08T14:41:52;102050.25;;;-0.74;nan
43814;BME280;29669;55.706;37.656;2023-02-08T14:50:10;102031.84;;;-0.86;nan
43814;BME280;29669;55.706;37.656;2023-02-08T14:55:53;102049.66;;;-0.85;nan
43814;BME280;29669;55.706;37.656;2023-02-08T14:59:10;102043.78;;;-0.88;nan
43814;BME280;29669;55.706;37.656;2023-02-08T15:02:00;102030.28;;;-0.92;nan
43814;BME280;29669;55.706;37.656;2023-02-08T15:10:16;102031.97;;;-0.93;nan
43814;BME280;29669;55.706;37.656;2023-02-08T15:12:51;102031.94;;;-0.89;nan
43814;BME280;29669;55.706;37.656;2023-02-08T15:15:30;102028.44;;;-0.87;nan
43814;BME280;29669;55.706;37.656;2023-02-08T15:18:03;102023.53;;;-0.93;nan
43814;BME280;29669;55.706;37.656;2023-02-08T15:21:12;102028.50;;;-0.88;nan
43814;BME280;29669;55.706;37.656;2023-02-08T15:23:42;102044.53;;;-0.85;nan
43814;BME280;29669;55.706;37.656;2023-02-08T15:28:49;102026.88;;;-0.91;nan
43814;BME280;29669;55.706;37.656;2023-02-08T15:34:10;102030.91;;;-0.82;nan
43814;BME280;29669;55.706;37.656;2023-02-08T15:36:38;102014.94;;;-0.90;nan
43814;BME280;29669;55.706;37.656;2023-02-08T15:39:35;102007.34;;;-0.92;nan
43814;BME280;29669;55.706;37.656;2023-02-08T15:42:13;102003.94;;;-0.93;nan
43814;BME280;29669;55.706;37.656;2023-02-08T15:44:51;102017.47;;;-0.89;nan
43814;BME280;29669;55.706;37.656;2023-02-08T15:48:12;102019.19;;;-0.89;nan
43814;BME280;29669;55.706;37.656;2023-02-08T15:50:51;102010.78;;;-0.93;nan
43814;BME280;29669;55.706;37.656;2023-02-08T15:53:30;102008.13;;;-0.90;nan
43814;BME280;29669;55.706;37.656;2023-02-08T15:56:22;102000.59;;;-0.93;nan
43814;BME280;29669;55.706;37.656;2023-02-08T15:59:20;101997.94;;;-0.90;nan
43814;BME280;29669;55.706;37.656;2023-02-08T16:01:54;102003.97;;;-0.94;nan
43814;BME280;29669;55.706;37.656;2023-02-08T16:07:41;102001.31;;;-0.88;nan
43814;BME280;29669;55.706;37.656;2023-02-08T16:10:47;102014.75;;;-0.83;nan
43814;BME280;29669;55.706;37.656;2023-02-08T16:13:22;102009.88;;;-0.92;nan
43814;BME280;29669;55.706;37.656;2023-02-08T16:16:18;102027.72;;;-0.92;nan
43814;BME280;29669;55.706;37.656;2023-02-08T16:19:49;102015.84;;;-0.91;nan
43814;BME280;29669;55.706;37.656;2023-02-08T16:22:28;102014.19;;;-0.94;nan
43814;BME280;29669;55.706;37.656;2023-02-08T16:25:29;102011.59;;;-0.93;nan
43814;BME280;29669;55.706;37.656;2023-02-08T16:28:03;101998.09;;;-0.96;nan
43814;BME280;29669;55.706;37.656;2023-02-08T16:30:33;101994.72;;;-0.98;nan
43814;BME280;29669;55.706;37.656;2023-02-08T16:33:07;101998.88;;;-0.94;nan
43814;BME280;29669;55.706;37.656;2023-02-08T16:35:37;101996.44;;;-0.97;nan
43814;BME280;29669;55.706;37.656;2023-02-08T16:38:09;102004.03;;;-0.96;nan
43814;BME280;29669;55.706;37.656;2023-02-08T16:41:09;102004.91;;;-0.97;nan
43814;BME280;29669;55.706;37.656;2023-02-08T16:44:14;101997.47;;;-1.06;nan
43814;BME280;29669;55.706;37.656;2023-02-08T16:46:43;101993.31;;;-1.10;nan
43814;BME280;29669;55.706;37.656;2023-02-08T16:49:14;102002.63;;;-1.09;nan
43814;BME280;29669;55.706;37.656;2023-02-08T16:52:15;102007.66;;;-1.06;nan
43814;BME280;29669;55.706;37.656;2023-02-08T16:55:14;102004.22;;;-1.03;nan
43814;BME280;29669;55.706;37.656;2023-02-08T16:57:55;101991.56;;;-1.08;nan
43814;BME280;29669;55.706;37.656;2023-02-08T17:04:22;102013.50;;;-1.02;nan
43814;BME280;29669;55.706;37.656;2023-02-08T17:06:54;102013.56;;;-1.04;nan
43814;BME280;29669;55.706;37.656;2023-02-08T17:09:25;102024.56;;;-1.02;nan
43814;BME280;29669;55.706;37.656;2023-02-08T17:11:56;102016.88;;;-1.00;nan
43814;BME280;29669;55.706;37.656;2023-02-08T17:14:28;102010.88;;;-0.98;nan
43814;BME280;29669;55.706;37.656;2023-02-08T17:17:24;102006.56;;;-0.96;nan
43814;BME280;29669;55.706;37.656;2023-02-08T17:19:55;102019.31;;;-0.96;nan
43814;BME280;29669;55.706;37.656;2023-02-08T17:22:28;102013.25;;;-0.90;nan
43814;BME280;29669;55.706;37.656;2023-02-08T17:25:24;102013.25;;;-0.90;nan
43814;BME280;29669;55.706;37.656;2023-02-08T17:28:00;102000.59;;;-0.95;nan
43814;BME280;29669;55.706;37.656;2023-02-08T17:33:09;101992.13;;;-0.95;nan
43814;BME280;29669;55.706;37.656;2023-02-08T17:36:13;101998.16;;;-0.99;nan
43814;BME280;29669;55.706;37.656;2023-02-08T17:38:59;101996.47;;;-0.99;nan
43814;BME280;29669;55.706;37.656;2023-02-08T17:41:59;102001.38;;;-0.91;nan
43814;BME280;29669;55.706;37.656;2023-02-08T17:44:32;101979.44;;;-0.98;nan
43814;BME280;29669;55.706;37.656;2023-02-08T17:49:47;101983.59;;;-0.94;nan
43814;BME280;29669;55.706;37.656;2023-02-08T17:52:16;102005.63;;;-0.91;nan
43814;BME280;29669;55.706;37.656;2023-02-08T17:55:09;101993.78;;;-0.94;nan
43814;BME280;29669;55.706;37.656;2023-02-08T17:57:38;101986.22;;;-0.97;nan
43814;BME280;29669;55.706;37.656;2023-02-08T18:00:14;101978.63;;;-1.00;nan
43814;BME280;29669;55.706;37.656;2023-02-08T18:02:51;101991.28;;;-0.96;nan
43814;BME280;29669;55.706;37.656;2023-02-08T18:05:24;101970.22;;;-1.04;nan